Silver Lake, Michigan
Current Conditions -  °F | °C
As of 9:35 PM on Sunday 23 Nov 2014 (Local Time) from KLDM Reporting Station
Moderate Rain Moderate Rain  
Wind Chill:   Ceiling: 400
Heat Index: 10°   Visibility: 7mi
Dew Point:   Wind: 6mph
Humidity: 97%   Direction: 110°ESE
Pressure: 29.33"   Gusts: NA
Location:  43.6851°N, 86.4584°W
Report Text: KLDM 240235Z AUTO 11005KT 7SM RA BKN004 OVC010 10/09 A2933 RMK AO2 P0005 T00960091
Loading
Personal Weather Stations






























Interactive Weather Map New forecast layout! Learn more

10-Day Weather Forecast

Advertisements
Track Severe Weather on mobile